Die Nordseeküste

2019/03/23 20:50 EDDH 232050Z 31004KT 280V350 CAVOK 06/03 Q1031 NOSIG
2008/11/04 23:50 TAF AMD EDDH 042350Z 050007 CNL= TAF AMD EDDV 042350Z 050007 CNL
2019/03/23 18:27 TAF EDDH 231700Z 2318/2424 30008KT 9999 FEW030 BECMG 2319/2321 VRB03KT TEMPO 2400/2408 2500 BCFG BECMG 2409/2411 28008KT

2019/03/23 14:20 EDXW 231420Z 30012KT CAVOK 08/05 Q1029
2019/03/23 15:33 TAF TAF EDXW 231527Z 2315/2318 CNL
2009/07/07 14:00 TAF EDXW 071400Z 0715/0719 22015G25KT 9999 SCT020

2019/03/23 20:50 EKSB 232050Z AUTO 31007KT 280V350 9999NDV BKN180/// 05/03 Q1030
2019/03/23 06:06 TAF TAF EKSB 230553Z 2306/2311 24005KT 2500 BR BKN005 BECMG 2306/2307 3000 BECMG 2307/2310 29012KT 9999 NSW SCT020
2016/01/27 09:03 TAF TAF EKSB 270856Z 2709/2721 23022KT 5000 -RA BR BKN008 TEMPO 2709/2721 24025G40KT 2000 RADZ BKN004